首页
METAR-TAF:

METAR-TAF

机场 :

努美阿國際機場, 新喀里多尼亚

纬度: 22-01S, 经度: 166-13E, 海拔: 16米

当前天气观测

该预报发布于17分钟前的08:30 UTC
风速5节,风向东转东北,在之间变化
温度 30°C
湿度 62%
气压 1001 hPa
能见度10公里或以上

METAR: NWWW 170830Z AUTO 06005KT 360V100 9999 ///TCU 30/22 Q1001 TEMPO 4000 SHRA BKN008 SCT018TCU

时间: 19:47 (08:47 UTC)

预报

该预报发布于3小时和47分钟前的05:00 UTC
预报有效从17日的 06点(UTC)到 18日的 06点(UTC)
风速12节,风向
能见度10公里或以上
散云层高于4000英尺
多云层高于5000英尺
多云层高于10000英尺
几率 30% :
短暂存在
从 17日的 06点(UTC)到 17日的 18点(UTC)
能見度: 4000
多云层高于800英尺
散云层高于1800英尺, 塔状积云.
阵雨
几率 40% :
短暂存在
从 17日的 18点(UTC)到 18日的 06点(UTC)
风速15节,风向,有时为25节阵风
能見度: 1200
多云层高于1000英尺
散云层高于1500英尺, 积雨云.
散云层高于2000英尺, 塔状积云.
雷暴, 雨

TAF: NWWW 170500Z 1706/1806 08012KT 9999 SCT040 BKN050 BKN100 PROB30 TEMPO 1706/1718 4000 SHRA BKN008 SCT018TCU PROB40 TEMPO 1718/1806 09015G25KT 1200 TSRA BKN010 SCT015CB SCT020TCU

超过4000个机场的气象观测和天气预报(METAR&TAF报告)。

可查询的气象台以黄色和红色小点在地图上表示。

将鼠标移到小点上方,可查看气象台名称。

然后点击查看天气观测和预报。

如需切换地图:点击带黑十字的绿色按钮放大地图;点击带横线的绿色按钮缩小地图;或者点击绿色箭头查看邻近地区的地图。


METAR-TAF: